PWSweather.com
Personal Weather Stations
Station Observations
SBERGENWX
Wood Ridge, NJ 07075

Wood Ridge, NJ 07075

Lat: 40.851667, Lon: -74.088131

Elevation: 177

Station Type: Davis Vantage Vue

http://201weather.com/

High Low Average
Temperature 48.0°F8.9°C 24.5°F-4.2°C 37.0°F2.8°C
Dew Point 34.0°F1.1°C 18.5°F-7.5°C 24.4°F-4.2°C
Winds 9.2 mph 14.8 kmh Calm Calm 1.0 mph SW1.6 kmh SW
Wind Gusts 15.0 mph24.1 kmh -- 3.0 mph4.8 kmh
Humidity 82% 41% 62%
Pressure 30.20 in1022.7 mb 29.91 in1012.9 mb -
Precipitation 0.02 in0.5 mm - -
Hour Temp Dew Point Humidity Winds Wind Gusts Pressure Precip Precip Rate Daily Precip Total
12:00 AM 29.1°F-1.6°C 18.4°F-7.6°C 64% Calm Calm -- 30.22 in1023.4 mb - 0.00 in0.0 mm 0.05 in1.3 mm
12:15 AM 29.3°F-1.5°C 18.6°F-7.4°C 64% Calm Calm -- 30.22 in1023.4 mb - 0.00 in0.0 mm 0.05 in1.3 mm
12:30 AM 29.1°F-1.6°C 18.8°F-7.3°C 65% Calm Calm -- 30.21 in1023.0 mb - 0.00 in0.0 mm 0.05 in1.3 mm
12:45 AM 28.8°F-1.8°C 18.5°F-7.5°C 65% Calm Calm -- 30.21 in1023.0 mb - 0.00 in0.0 mm 0.05 in1.3 mm
01:00 AM 28.6°F-1.9°C 18.7°F-7.4°C 66% Calm Calm -- 30.20 in1022.7 mb - 0.00 in0.0 mm 0.00 in0.0 mm
01:15 AM 28.9°F-1.7°C 18.9°F-7.3°C 66% Calm Calm -- 30.20 in1022.7 mb - 0.00 in0.0 mm 0.00 in0.0 mm
01:30 AM 29.0°F-1.7°C 19.4°F-7.0°C 67% Calm Calm -- 30.20 in1022.7 mb - 0.00 in0.0 mm 0.00 in0.0 mm
01:45 AM 29.5°F-1.4°C 19.5°F-6.9°C 66% Calm Calm 1.2 mph1.9 kmh 30.19 in1022.4 mb - 0.00 in0.0 mm 0.00 in0.0 mm
02:00 AM 29.5°F-1.4°C 19.5°F-6.9°C 66% Calm Calm -- 30.19 in1022.4 mb - 0.00 in0.0 mm 0.00 in0.0 mm
02:15 AM 29.2°F-1.6°C 19.6°F-6.9°C 67% Calm Calm -- 30.18 in1022.0 mb - 0.00 in0.0 mm 0.00 in0.0 mm
02:30 AM 28.9°F-1.7°C 19.7°F-6.8°C 68% Calm Calm -- 30.18 in1022.0 mb - 0.00 in0.0 mm 0.00 in0.0 mm
02:45 AM 28.4°F-2.0°C 19.5°F-6.9°C 69% Calm Calm -- 30.18 in1022.0 mb - 0.00 in0.0 mm 0.00 in0.0 mm
03:00 AM 27.9°F-2.3°C 19.7°F-6.8°C 71% Calm Calm 1.2 mph1.9 kmh 30.18 in1022.0 mb - 0.00 in0.0 mm 0.00 in0.0 mm
03:15 AM 28.3°F-2.1°C 20.1°F-6.6°C 71% Calm Calm -- 30.18 in1022.0 mb - 0.00 in0.0 mm 0.00 in0.0 mm
03:30 AM 28.1°F-2.2°C 19.9°F-6.7°C 71% Calm Calm -- 30.18 in1022.0 mb - 0.00 in0.0 mm 0.00 in0.0 mm
03:45 AM 28.1°F-2.2°C 20.3°F-6.5°C 72% Calm Calm -- 30.18 in1022.0 mb - 0.00 in0.0 mm 0.00 in0.0 mm
04:00 AM 27.1°F-2.7°C 19.9°F-6.7°C 74% Calm Calm -- 30.17 in1021.7 mb - 0.00 in0.0 mm 0.00 in0.0 mm
04:15 AM 26.5°F-3.1°C 19.3°F-7.1°C 74% Calm Calm -- 30.17 in1021.7 mb - 0.00 in0.0 mm 0.00 in0.0 mm
04:30 AM 26.0°F-3.3°C 18.8°F-7.3°C 74% Calm Calm -- 30.16 in1021.3 mb - 0.00 in0.0 mm 0.00 in0.0 mm
04:45 AM 25.5°F-3.6°C 18.7°F-7.4°C 75% Calm Calm -- 30.15 in1021.0 mb - 0.00 in0.0 mm 0.00 in0.0 mm
05:00 AM 25.0°F-3.9°C 18.5°F-7.5°C 76% Calm Calm -- 30.15 in1021.0 mb - 0.00 in0.0 mm 0.00 in0.0 mm
05:15 AM 25.3°F-3.7°C 19.1°F-7.2°C 77% Calm Calm -- 30.14 in1020.7 mb - 0.00 in0.0 mm 0.00 in0.0 mm
05:30 AM 25.4°F-3.7°C 19.2°F-7.1°C 77% Calm Calm -- 30.14 in1020.7 mb - 0.00 in0.0 mm 0.00 in0.0 mm
05:45 AM 25.6°F-3.6°C 19.7°F-6.8°C 78% Calm Calm -- 30.14 in1020.7 mb - 0.00 in0.0 mm 0.00 in0.0 mm
06:00 AM 25.7°F-3.5°C 20.1°F-6.6°C 79% Calm Calm -- 30.13 in1020.3 mb - 0.00 in0.0 mm 0.00 in0.0 mm
06:15 AM 25.8°F-3.4°C 19.9°F-6.7°C 78% Calm Calm -- 30.13 in1020.3 mb - 0.00 in0.0 mm 0.00 in0.0 mm
06:30 AM 25.4°F-3.7°C 19.8°F-6.8°C 79% Calm Calm -- 30.13 in1020.3 mb - 0.00 in0.0 mm 0.00 in0.0 mm
06:45 AM 25.2°F-3.8°C 19.6°F-6.9°C 79% Calm Calm 1.2 mph1.9 kmh 30.12 in1020.0 mb - 0.00 in0.0 mm 0.00 in0.0 mm
07:00 AM 24.9°F-3.9°C 19.3°F-7.1°C 79% Calm Calm -- 30.12 in1020.0 mb - 0.00 in0.0 mm 0.00 in0.0 mm
07:15 AM 24.6°F-4.1°C 19.3°F-7.1°C 80% Calm Calm -- 30.12 in1020.0 mb - 0.00 in0.0 mm 0.00 in0.0 mm
07:30 AM 24.8°F-4.0°C 20.1°F-6.6°C 82% Calm Calm -- 30.11 in1019.6 mb - 0.00 in0.0 mm 0.00 in0.0 mm
07:45 AM 24.5°F-4.2°C 19.5°F-6.9°C 81% Calm Calm -- 30.11 in1019.6 mb - 0.00 in0.0 mm 0.00 in0.0 mm
08:00 AM 24.5°F-4.2°C 19.5°F-6.9°C 81% Calm Calm -- 30.11 in1019.6 mb - 0.00 in0.0 mm 0.00 in0.0 mm
08:15 AM 24.5°F-4.2°C 19.5°F-6.9°C 81% Calm Calm -- 30.10 in1019.3 mb - 0.00 in0.0 mm 0.00 in0.0 mm
08:30 AM 24.5°F-4.2°C 19.5°F-6.9°C 81% Calm Calm -- 30.10 in1019.3 mb - 0.00 in0.0 mm 0.00 in0.0 mm
08:45 AM 27.2°F-2.7°C 22.1°F-5.5°C 81% Calm Calm -- 30.09 in1019.0 mb - 0.00 in0.0 mm 0.00 in0.0 mm
09:00 AM 28.4°F-2.0°C 23.6°F-4.7°C 82% Calm Calm -- 30.08 in1018.6 mb - 0.00 in0.0 mm 0.00 in0.0 mm
09:15 AM 32.6°F0.3°C 27.4°F-2.6°C 81% Calm Calm -- 30.08 in1018.6 mb - 0.00 in0.0 mm 0.00 in0.0 mm
09:30 AM 35.3°F1.8°C 30.1°F-1.1°C 81% 2.3 mph S3.7 kmh S 3.5 mph5.6 kmh 30.07 in1018.3 mb - 0.00 in0.0 mm 0.00 in0.0 mm
09:45 AM 37.5°F3.1°C 32.2°F0.1°C 81% 2.3 mph SSE3.7 kmh SSE 8.1 mph13.0 kmh 30.07 in1018.3 mb - 0.00 in0.0 mm 0.00 in0.0 mm
10:00 AM 39.7°F4.3°C 33.7°F0.9°C 79% 4.6 mph S7.4 kmh S 5.8 mph9.3 kmh 30.05 in1017.6 mb - 0.00 in0.0 mm 0.00 in0.0 mm
10:15 AM 40.6°F4.8°C 34.0°F1.1°C 77% 4.6 mph S7.4 kmh S 6.9 mph11.1 kmh 30.06 in1017.9 mb - 0.00 in0.0 mm 0.00 in0.0 mm
10:30 AM 41.2°F5.1°C 33.2°F0.7°C 73% 4.6 mph SE7.4 kmh SE 11.5 mph18.5 kmh 30.05 in1017.6 mb - 0.00 in0.0 mm 0.00 in0.0 mm
10:45 AM 41.5°F5.3°C 32.8°F0.4°C 71% 4.6 mph S7.4 kmh S 11.5 mph18.5 kmh 30.05 in1017.6 mb - 0.00 in0.0 mm 0.00 in0.0 mm
11:00 AM 41.9°F5.5°C 32.1°F0.1°C 68% 3.5 mph S5.6 kmh S 4.6 mph7.4 kmh 30.04 in1017.3 mb - 0.00 in0.0 mm 0.00 in0.0 mm
11:15 AM 42.7°F5.9°C 31.7°F-0.2°C 65% 4.6 mph SSW7.4 kmh SSW 10.4 mph16.7 kmh 30.04 in1017.3 mb - 0.00 in0.0 mm 0.00 in0.0 mm
11:30 AM 43.6°F6.4°C 31.0°F-0.6°C 61% 4.6 mph S7.4 kmh S 10.4 mph16.7 kmh 30.03 in1016.9 mb - 0.00 in0.0 mm 0.00 in0.0 mm
11:45 AM 44.2°F6.8°C 30.3°F-0.9°C 58% 8.1 mph SSW13.0 kmh SSW 11.5 mph18.5 kmh 30.02 in1016.6 mb - 0.00 in0.0 mm 0.00 in0.0 mm
12:00 PM 44.5°F6.9°C 30.2°F-1.0°C 57% 6.9 mph SSW11.1 kmh SSW 11.5 mph18.5 kmh 30.01 in1016.3 mb - 0.00 in0.0 mm 0.00 in0.0 mm
12:15 PM 45.5°F7.5°C 30.2°F-1.0°C 55% 4.6 mph S7.4 kmh S 6.9 mph11.1 kmh 30.00 in1015.9 mb - 0.00 in0.0 mm 0.00 in0.0 mm
12:30 PM 45.6°F7.6°C 29.0°F-1.7°C 52% 6.9 mph S11.1 kmh S 13.8 mph22.2 kmh 29.98 in1015.2 mb - 0.00 in0.0 mm 0.00 in0.0 mm
12:45 PM 46.3°F7.9°C 27.1°F-2.7°C 47% 9.2 mph SSW14.8 kmh SSW 15.0 mph24.1 kmh 29.98 in1015.2 mb - 0.00 in0.0 mm 0.00 in0.0 mm
01:00 PM 46.5°F8.1°C 27.8°F-2.3°C 48% 2.3 mph SW3.7 kmh SW 4.6 mph7.4 kmh 29.98 in1015.2 mb - 0.00 in0.0 mm 0.00 in0.0 mm
01:15 PM 46.0°F7.8°C 27.9°F-2.3°C 49% 1.2 mph S1.9 kmh S 6.9 mph11.1 kmh 29.97 in1014.9 mb - 0.00 in0.0 mm 0.00 in0.0 mm
01:30 PM 45.8°F7.7°C 26.7°F-2.9°C 47% 2.3 mph SSW3.7 kmh SSW 4.6 mph7.4 kmh 29.97 in1014.9 mb - 0.00 in0.0 mm 0.00 in0.0 mm
01:45 PM 46.3°F7.9°C 26.1°F-3.3°C 45% 3.5 mph WSW5.6 kmh WSW 5.8 mph9.3 kmh 29.97 in1014.9 mb - 0.00 in0.0 mm 0.00 in0.0 mm
02:00 PM 46.8°F8.2°C 26.0°F-3.3°C 44% 5.8 mph SSW9.3 kmh SSW 12.7 mph20.4 kmh 29.96 in1014.6 mb - 0.00 in0.0 mm 0.00 in0.0 mm
02:15 PM 47.7°F8.7°C 26.8°F-2.9°C 44% 3.5 mph SSW5.6 kmh SSW 8.1 mph13.0 kmh 29.95 in1014.2 mb - 0.00 in0.0 mm 0.00 in0.0 mm
02:30 PM 48.0°F8.9°C 26.0°F-3.3°C 42% 2.3 mph SW3.7 kmh SW 3.5 mph5.6 kmh 29.94 in1013.9 mb - 0.00 in0.0 mm 0.00 in0.0 mm
02:45 PM 47.7°F8.7°C 25.7°F-3.5°C 42% 2.3 mph SSW3.7 kmh SSW 6.9 mph11.1 kmh 29.94 in1013.9 mb - 0.00 in0.0 mm 0.00 in0.0 mm
03:00 PM 47.4°F8.6°C 25.4°F-3.7°C 42% 2.3 mph S3.7 kmh S 10.4 mph16.7 kmh 29.93 in1013.5 mb - 0.00 in0.0 mm 0.00 in0.0 mm
03:15 PM 47.2°F8.4°C 24.7°F-4.1°C 41% Calm Calm 6.9 mph11.1 kmh 29.92 in1013.2 mb - 0.00 in0.0 mm 0.00 in0.0 mm
03:30 PM 46.7°F8.2°C 24.2°F-4.3°C 41% 2.3 mph SW3.7 kmh SW 9.2 mph14.8 kmh 29.92 in1013.2 mb - 0.00 in0.0 mm 0.00 in0.0 mm
03:45 PM 46.5°F8.1°C 24.0°F-4.4°C 41% 1.2 mph WSW1.9 kmh WSW 3.5 mph5.6 kmh 29.92 in1013.2 mb - 0.00 in0.0 mm 0.00 in0.0 mm
04:00 PM 46.1°F7.8°C 24.8°F-4.0°C 43% 2.3 mph SSW3.7 kmh SSW 8.1 mph13.0 kmh 29.92 in1013.2 mb - 0.00 in0.0 mm 0.00 in0.0 mm
04:15 PM 46.0°F7.8°C 25.3°F-3.7°C 44% 1.2 mph SSW1.9 kmh SSW 3.5 mph5.6 kmh 29.91 in1012.9 mb - 0.00 in0.0 mm 0.00 in0.0 mm
04:30 PM 45.7°F7.6°C 25.6°F-3.6°C 45% 2.3 mph SW3.7 kmh SW 8.1 mph13.0 kmh 29.91 in1012.9 mb - 0.00 in0.0 mm 0.00 in0.0 mm
04:45 PM 45.1°F7.3°C 25.0°F-3.9°C 45% 3.5 mph SW5.6 kmh SW 5.8 mph9.3 kmh 29.92 in1013.2 mb - 0.00 in0.0 mm 0.00 in0.0 mm
05:00 PM 44.9°F7.2°C 25.4°F-3.7°C 46% 1.2 mph WSW1.9 kmh WSW 5.8 mph9.3 kmh 29.92 in1013.2 mb - 0.00 in0.0 mm 0.00 in0.0 mm
05:15 PM 44.8°F7.1°C 25.8°F-3.4°C 47% Calm Calm 1.2 mph1.9 kmh 29.92 in1013.2 mb - 0.00 in0.0 mm 0.00 in0.0 mm
05:30 PM 44.5°F6.9°C 26.0°F-3.3°C 48% Calm Calm -- 29.92 in1013.2 mb - 0.00 in0.0 mm 0.00 in0.0 mm
05:45 PM 44.2°F6.8°C 25.7°F-3.5°C 48% Calm Calm 3.5 mph5.6 kmh 29.92 in1013.2 mb - 0.00 in0.0 mm 0.00 in0.0 mm
06:00 PM 43.7°F6.5°C 25.8°F-3.4°C 49% Calm Calm -- 29.92 in1013.2 mb - 0.01 in0.3 mm 0.01 in0.3 mm
06:15 PM 43.3°F6.3°C 26.4°F-3.1°C 51% Calm Calm -- 29.93 in1013.5 mb - 0.01 in0.3 mm 0.01 in0.3 mm
06:30 PM 43.1°F6.2°C 26.2°F-3.2°C 51% Calm Calm -- 29.93 in1013.5 mb - 0.01 in0.3 mm 0.01 in0.3 mm
06:45 PM 42.5°F5.8°C 26.1°F-3.3°C 52% Calm Calm -- 29.93 in1013.5 mb - 0.01 in0.3 mm 0.01 in0.3 mm
07:00 PM 42.0°F5.6°C 26.1°F-3.3°C 53% Calm Calm -- 29.94 in1013.9 mb - 0.00 in0.0 mm 0.01 in0.3 mm
07:15 PM 41.8°F5.4°C 26.4°F-3.1°C 54% Calm Calm -- 29.95 in1014.2 mb - 0.00 in0.0 mm 0.01 in0.3 mm
07:30 PM 41.5°F5.3°C 26.1°F-3.3°C 54% Calm Calm -- 29.95 in1014.2 mb - 0.00 in0.0 mm 0.01 in0.3 mm
07:45 PM 41.3°F5.2°C 25.9°F-3.4°C 54% Calm Calm -- 29.95 in1014.2 mb - 0.00 in0.0 mm 0.01 in0.3 mm
08:00 PM 41.3°F5.2°C 25.9°F-3.4°C 54% Calm Calm -- 29.94 in1013.9 mb - 0.00 in0.0 mm 0.01 in0.3 mm
08:15 PM 41.4°F5.2°C 26.0°F-3.3°C 54% Calm Calm -- 29.94 in1013.9 mb - 0.00 in0.0 mm 0.01 in0.3 mm
08:30 PM 41.3°F5.2°C 25.9°F-3.4°C 54% Calm Calm -- 29.95 in1014.2 mb - 0.00 in0.0 mm 0.01 in0.3 mm
08:45 PM 41.2°F5.1°C 25.8°F-3.4°C 54% Calm Calm -- 29.95 in1014.2 mb - 0.00 in0.0 mm 0.01 in0.3 mm
09:00 PM 40.9°F4.9°C 26.0°F-3.3°C 55% Calm Calm -- 29.96 in1014.6 mb - 0.00 in0.0 mm 0.01 in0.3 mm
09:15 PM 40.6°F4.8°C 25.7°F-3.5°C 55% Calm Calm -- 29.97 in1014.9 mb - 0.00 in0.0 mm 0.01 in0.3 mm
09:30 PM 40.3°F4.6°C 25.8°F-3.4°C 56% Calm Calm 1.2 mph1.9 kmh 29.98 in1015.2 mb - 0.00 in0.0 mm 0.01 in0.3 mm
09:45 PM 40.6°F4.8°C 25.7°F-3.5°C 55% 1.2 mph W1.9 kmh W 3.5 mph5.6 kmh 29.98 in1015.2 mb - 0.00 in0.0 mm 0.01 in0.3 mm
10:00 PM 40.4°F4.7°C 26.0°F-3.3°C 56% 1.2 mph WNW1.9 kmh WNW 2.3 mph3.7 kmh 29.98 in1015.2 mb - 0.00 in0.0 mm 0.01 in0.3 mm
10:15 PM 40.1°F4.5°C 26.5°F-3.1°C 58% 2.3 mph WNW3.7 kmh WNW 4.6 mph7.4 kmh 29.98 in1015.2 mb - 0.00 in0.0 mm 0.01 in0.3 mm
10:30 PM 39.6°F4.2°C 26.8°F-2.9°C 60% 2.3 mph NW3.7 kmh NW 5.8 mph9.3 kmh 29.98 in1015.2 mb - 0.00 in0.0 mm 0.01 in0.3 mm
10:45 PM 39.0°F3.9°C 27.1°F-2.7°C 62% Calm Calm 1.2 mph1.9 kmh 29.98 in1015.2 mb - 0.00 in0.0 mm 0.01 in0.3 mm
11:00 PM 38.4°F3.6°C 26.9°F-2.8°C 63% 1.2 mph W1.9 kmh W 3.5 mph5.6 kmh 29.98 in1015.2 mb - 0.00 in0.0 mm 0.01 in0.3 mm
11:15 PM 37.7°F3.2°C 26.2°F-3.2°C 63% 1.2 mph WNW1.9 kmh WNW 3.5 mph5.6 kmh 29.98 in1015.2 mb - 0.00 in0.0 mm 0.01 in0.3 mm
11:30 PM 37.5°F3.1°C 24.5°F-4.2°C 59% 1.2 mph W1.9 kmh W 4.6 mph7.4 kmh 29.98 in1015.2 mb - 0.00 in0.0 mm 0.01 in0.3 mm
11:45 PM 37.1°F2.8°C 24.1°F-4.4°C 59% Calm Calm 1.2 mph1.9 kmh 29.99 in1015.6 mb - 0.01 in0.3 mm 0.02 in0.5 mm